sensor_id;sensor_type;location;lat;lon;timestamp;P1;durP1;ratioP1;P2;durP2;ratioP2
29504;SDS011;16452;54.174;12.092;2023-03-03T00:01:21;96.10;;;21.25;;
29504;SDS011;16452;54.174;12.092;2023-03-03T00:03:49;66.88;;;20.58;;
29504;SDS011;16452;54.174;12.092;2023-03-03T00:06:15;63.97;;;21.38;;
29504;SDS011;16452;54.174;12.092;2023-03-03T00:08:42;58.83;;;21.15;;
29504;SDS011;16452;54.174;12.092;2023-03-03T00:11:08;79.72;;;21.90;;
29504;SDS011;16452;54.174;12.092;2023-03-03T00:13:48;74.68;;;21.85;;
29504;SDS011;16452;54.174;12.092;2023-03-03T00:16:25;60.72;;;22.50;;
29504;SDS011;16452;54.174;12.092;2023-03-03T00:19:01;63.65;;;22.08;;
29504;SDS011;16452;54.174;12.092;2023-03-03T00:21:28;99.15;;;23.33;;
29504;SDS011;16452;54.174;12.092;2023-03-03T00:24:24;68.45;;;22.88;;
29504;SDS011;16452;54.174;12.092;2023-03-03T00:27:07;75.40;;;23.55;;
29504;SDS011;16452;54.174;12.092;2023-03-03T00:29:52;59.40;;;23.90;;
29504;SDS011;16452;54.174;12.092;2023-03-03T00:32:43;59.05;;;22.92;;
29504;SDS011;16452;54.174;12.092;2023-03-03T00:35:32;67.93;;;23.73;;
29504;SDS011;16452;54.174;12.092;2023-03-03T00:38:21;50.70;;;23.92;;
29504;SDS011;16452;54.174;12.092;2023-03-03T00:41:15;57.63;;;24.50;;
29504;SDS011;16452;54.174;12.092;2023-03-03T00:43:48;76.22;;;24.77;;
29504;SDS011;16452;54.174;12.092;2023-03-03T00:46:19;80.18;;;25.85;;
29504;SDS011;16452;54.174;12.092;2023-03-03T00:48:47;64.97;;;24.55;;
29504;SDS011;16452;54.174;12.092;2023-03-03T00:53:49;74.35;;;26.50;;
29504;SDS011;16452;54.174;12.092;2023-03-03T00:56:15;90.35;;;25.42;;
29504;SDS011;16452;54.174;12.092;2023-03-03T00:58:40;71.28;;;25.00;;
29504;SDS011;16452;54.174;12.092;2023-03-03T01:01:08;53.92;;;25.08;;
29504;SDS011;16452;54.174;12.092;2023-03-03T01:03:34;61.30;;;25.38;;
29504;SDS011;16452;54.174;12.092;2023-03-03T01:05:59;72.68;;;24.73;;
29504;SDS011;16452;54.174;12.092;2023-03-03T01:08:25;43.53;;;24.48;;
29504;SDS011;16452;54.174;12.092;2023-03-03T01:10:52;54.53;;;24.65;;
29504;SDS011;16452;54.174;12.092;2023-03-03T01:13:22;57.10;;;25.58;;
29504;SDS011;16452;54.174;12.092;2023-03-03T01:15:52;97.53;;;24.52;;
29504;SDS011;16452;54.174;12.092;2023-03-03T01:18:18;62.78;;;24.05;;
29504;SDS011;16452;54.174;12.092;2023-03-03T01:20:44;53.58;;;23.35;;
29504;SDS011;16452;54.174;12.092;2023-03-03T01:23:10;77.70;;;24.10;;
29504;SDS011;16452;54.174;12.092;2023-03-03T01:25:37;78.97;;;24.00;;
29504;SDS011;16452;54.174;12.092;2023-03-03T01:28:03;74.90;;;23.75;;
29504;SDS011;16452;54.174;12.092;2023-03-03T01:30:29;56.28;;;24.25;;
29504;SDS011;16452;54.174;12.092;2023-03-03T01:32:55;53.10;;;23.92;;
29504;SDS011;16452;54.174;12.092;2023-03-03T01:35:21;46.20;;;23.13;;
29504;SDS011;16452;54.174;12.092;2023-03-03T01:37:47;77.38;;;23.70;;
29504;SDS011;16452;54.174;12.092;2023-03-03T01:40:15;107.57;;;23.60;;
29504;SDS011;16452;54.174;12.092;2023-03-03T01:42:45;66.32;;;23.48;;
29504;SDS011;16452;54.174;12.092;2023-03-03T01:45:13;85.30;;;24.60;;
29504;SDS011;16452;54.174;12.092;2023-03-03T01:53:49;81.85;;;24.30;;
29504;SDS011;16452;54.174;12.092;2023-03-03T01:56:20;109.78;;;24.20;;
29504;SDS011;16452;54.174;12.092;2023-03-03T01:58:53;95.82;;;23.05;;
29504;SDS011;16452;54.174;12.092;2023-03-03T02:01:36;93.70;;;22.85;;
29504;SDS011;16452;54.174;12.092;2023-03-03T02:04:02;81.40;;;23.95;;
29504;SDS011;16452;54.174;12.092;2023-03-03T02:11:20;123.45;;;23.17;;
29504;SDS011;16452;54.174;12.092;2023-03-03T02:13:46;134.05;;;20.95;;
29504;SDS011;16452;54.174;12.092;2023-03-03T02:16:12;198.18;;;21.90;;
29504;SDS011;16452;54.174;12.092;2023-03-03T02:18:38;161.70;;;22.35;;
29504;SDS011;16452;54.174;12.092;2023-03-03T02:21:14;185.45;;;22.10;;
29504;SDS011;16452;54.174;12.092;2023-03-03T02:26:15;129.20;;;20.98;;
29504;SDS011;16452;54.174;12.092;2023-03-03T02:28:57;143.40;;;23.48;;
29504;SDS011;16452;54.174;12.092;2023-03-03T02:31:24;73.75;;;22.30;;
29504;SDS011;16452;54.174;12.092;2023-03-03T02:33:53;102.07;;;22.50;;
29504;SDS011;16452;54.174;12.092;2023-03-03T02:36:20;109.55;;;19.95;;
29504;SDS011;16452;54.174;12.092;2023-03-03T02:39:06;76.85;;;20.73;;
29504;SDS011;16452;54.174;12.092;2023-03-03T02:41:46;103.95;;;19.75;;
29504;SDS011;16452;54.174;12.092;2023-03-03T02:44:32;78.07;;;19.10;;
29504;SDS011;16452;54.174;12.092;2023-03-03T02:46:58;78.18;;;20.33;;
29504;SDS011;16452;54.174;12.092;2023-03-03T02:49:29;54.15;;;17.83;;
29504;SDS011;16452;54.174;12.092;2023-03-03T02:51:58;88.40;;;19.83;;
29504;SDS011;16452;54.174;12.092;2023-03-03T02:54:26;71.78;;;19.42;;
29504;SDS011;16452;54.174;12.092;2023-03-03T02:56:54;91.70;;;19.88;;
29504;SDS011;16452;54.174;12.092;2023-03-03T02:59:21;107.63;;;20.08;;
29504;SDS011;16452;54.174;12.092;2023-03-03T03:01:47;128.20;;;20.92;;
29504;SDS011;16452;54.174;12.092;2023-03-03T03:04:14;106.75;;;20.75;;
29504;SDS011;16452;54.174;12.092;2023-03-03T03:06:51;97.97;;;19.73;;
29504;SDS011;16452;54.174;12.092;2023-03-03T03:09:19;95.85;;;19.02;;
29504;SDS011;16452;54.174;12.092;2023-03-03T03:11:46;83.70;;;20.90;;
29504;SDS011;16452;54.174;12.092;2023-03-03T03:14:19;89.70;;;19.77;;
29504;SDS011;16452;54.174;12.092;2023-03-03T03:16:45;90.00;;;20.65;;
29504;SDS011;16452;54.174;12.092;2023-03-03T03:19:10;116.90;;;20.15;;
29504;SDS011;16452;54.174;12.092;2023-03-03T03:21:36;100.70;;;20.98;;
29504;SDS011;16452;54.174;12.092;2023-03-03T03:24:02;83.32;;;20.15;;
29504;SDS011;16452;54.174;12.092;2023-03-03T03:26:28;106.45;;;21.05;;
29504;SDS011;16452;54.174;12.092;2023-03-03T03:28:54;172.93;;;19.10;;
29504;SDS011;16452;54.174;12.092;2023-03-03T03:31:20;57.03;;;19.88;;
29504;SDS011;16452;54.174;12.092;2023-03-03T03:33:46;146.57;;;18.80;;
29504;SDS011;16452;54.174;12.092;2023-03-03T03:36:12;121.97;;;19.38;;
29504;SDS011;16452;54.174;12.092;2023-03-03T03:38:38;169.80;;;19.77;;
29504;SDS011;16452;54.174;12.092;2023-03-03T03:41:04;156.18;;;19.55;;
29504;SDS011;16452;54.174;12.092;2023-03-03T03:43:31;135.35;;;18.85;;
29504;SDS011;16452;54.174;12.092;2023-03-03T03:45:57;130.45;;;19.27;;
29504;SDS011;16452;54.174;12.092;2023-03-03T03:48:23;83.28;;;19.23;;
29504;SDS011;16452;54.174;12.092;2023-03-03T03:50:49;194.32;;;19.80;;
29504;SDS011;16452;54.174;12.092;2023-03-03T03:53:16;111.80;;;18.70;;
29504;SDS011;16452;54.174;12.092;2023-03-03T03:55:42;118.88;;;18.20;;
29504;SDS011;16452;54.174;12.092;2023-03-03T03:58:13;166.60;;;18.02;;
29504;SDS011;16452;54.174;12.092;2023-03-03T04:00:41;61.33;;;17.50;;
29504;SDS011;16452;54.174;12.092;2023-03-03T04:03:08;175.98;;;17.77;;
29504;SDS011;16452;54.174;12.092;2023-03-03T04:05:35;107.65;;;17.50;;
29504;SDS011;16452;54.174;12.092;2023-03-03T04:08:01;73.70;;;18.10;;
29504;SDS011;16452;54.174;12.092;2023-03-03T04:10:27;146.07;;;16.65;;
29504;SDS011;16452;54.174;12.092;2023-03-03T04:12:53;125.88;;;16.50;;
29504;SDS011;16452;54.174;12.092;2023-03-03T04:15:19;73.90;;;17.17;;
29504;SDS011;16452;54.174;12.092;2023-03-03T04:17:45;55.28;;;16.13;;
29504;SDS011;16452;54.174;12.092;2023-03-03T04:20:12;73.03;;;16.67;;
29504;SDS011;16452;54.174;12.092;2023-03-03T04:22:39;80.85;;;17.30;;
29504;SDS011;16452;54.174;12.092;2023-03-03T04:25:05;70.30;;;15.68;;
29504;SDS011;16452;54.174;12.092;2023-03-03T04:27:35;130.15;;;16.38;;
29504;SDS011;16452;54.174;12.092;2023-03-03T04:30:03;131.50;;;16.67;;
29504;SDS011;16452;54.174;12.092;2023-03-03T04:32:30;82.40;;;16.55;;
29504;SDS011;16452;54.174;12.092;2023-03-03T04:34:58;159.30;;;15.65;;
29504;SDS011;16452;54.174;12.092;2023-03-03T04:37:23;106.57;;;16.25;;
29504;SDS011;16452;54.174;12.092;2023-03-03T04:39:49;71.45;;;14.75;;
29504;SDS011;16452;54.174;12.092;2023-03-03T04:42:15;129.25;;;15.77;;
29504;SDS011;16452;54.174;12.092;2023-03-03T04:44:41;68.85;;;15.95;;
29504;SDS011;16452;54.174;12.092;2023-03-03T04:47:06;138.00;;;15.60;;
29504;SDS011;16452;54.174;12.092;2023-03-03T04:49:32;128.25;;;16.13;;
29504;SDS011;16452;54.174;12.092;2023-03-03T04:51:58;123.30;;;15.23;;
29504;SDS011;16452;54.174;12.092;2023-03-03T04:54:24;86.95;;;16.40;;
29504;SDS011;16452;54.174;12.092;2023-03-03T04:56:49;73.45;;;16.20;;
29504;SDS011;16452;54.174;12.092;2023-03-03T04:59:15;67.80;;;16.67;;
29504;SDS011;16452;54.174;12.092;2023-03-03T05:01:41;58.67;;;15.63;;
29504;SDS011;16452;54.174;12.092;2023-03-03T05:04:06;61.45;;;15.93;;
29504;SDS011;16452;54.174;12.092;2023-03-03T05:06:32;56.17;;;16.70;;
29504;SDS011;16452;54.174;12.092;2023-03-03T05:08:58;92.22;;;16.98;;
29504;SDS011;16452;54.174;12.092;2023-03-03T05:11:24;57.38;;;16.38;;
29504;SDS011;16452;54.174;12.092;2023-03-03T05:13:49;71.30;;;15.82;;
29504;SDS011;16452;54.174;12.092;2023-03-03T05:16:16;86.63;;;15.82;;
29504;SDS011;16452;54.174;12.092;2023-03-03T05:18:41;70.78;;;16.10;;
29504;SDS011;16452;54.174;12.092;2023-03-03T05:21:07;48.92;;;15.93;;
29504;SDS011;16452;54.174;12.092;2023-03-03T05:23:33;43.55;;;17.23;;
29504;SDS011;16452;54.174;12.092;2023-03-03T05:25:59;56.65;;;16.50;;
29504;SDS011;16452;54.174;12.092;2023-03-03T05:28:24;55.75;;;17.33;;
29504;SDS011;16452;54.174;12.092;2023-03-03T05:30:50;34.00;;;16.23;;
29504;SDS011;16452;54.174;12.092;2023-03-03T05:33:16;32.33;;;16.63;;
29504;SDS011;16452;54.174;12.092;2023-03-03T05:35:42;25.38;;;17.10;;
29504;SDS011;16452;54.174;12.092;2023-03-03T05:38:09;25.35;;;16.52;;
29504;SDS011;16452;54.174;12.092;2023-03-03T05:40:35;25.30;;;16.42;;
29504;SDS011;16452;54.174;12.092;2023-03-03T05:43:02;24.30;;;15.82;;
29504;SDS011;16452;54.174;12.092;2023-03-03T05:45:28;25.60;;;17.02;;
29504;SDS011;16452;54.174;12.092;2023-03-03T05:47:53;28.02;;;18.20;;
29504;SDS011;16452;54.174;12.092;2023-03-03T05:50:20;27.63;;;17.98;;
29504;SDS011;16452;54.174;12.092;2023-03-03T05:52:48;25.95;;;17.77;;
29504;SDS011;16452;54.174;12.092;2023-03-03T05:55:14;27.05;;;17.02;;
29504;SDS011;16452;54.174;12.092;2023-03-03T05:57:40;27.40;;;17.50;;
29504;SDS011;16452;54.174;12.092;2023-03-03T06:00:06;28.73;;;18.60;;
29504;SDS011;16452;54.174;12.092;2023-03-03T06:02:33;28.83;;;18.48;;
29504;SDS011;16452;54.174;12.092;2023-03-03T06:04:59;27.10;;;18.30;;
29504;SDS011;16452;54.174;12.092;2023-03-03T06:07:25;27.83;;;18.48;;
29504;SDS011;16452;54.174;12.092;2023-03-03T06:09:51;28.58;;;19.05;;
29504;SDS011;16452;54.174;12.092;2023-03-03T06:12:17;27.85;;;18.05;;
29504;SDS011;16452;54.174;12.092;2023-03-03T06:14:43;28.75;;;18.77;;
29504;SDS011;16452;54.174;12.092;2023-03-03T06:17:08;26.85;;;17.65;;
29504;SDS011;16452;54.174;12.092;2023-03-03T06:19:35;28.00;;;18.27;;
29504;SDS011;16452;54.174;12.092;2023-03-03T06:22:01;27.08;;;18.50;;
29504;SDS011;16452;54.174;12.092;2023-03-03T06:24:27;29.08;;;18.92;;
29504;SDS011;16452;54.174;12.092;2023-03-03T06:26:56;26.90;;;18.30;;
29504;SDS011;16452;54.174;12.092;2023-03-03T06:29:22;27.23;;;18.05;;
29504;SDS011;16452;54.174;12.092;2023-03-03T06:31:48;27.42;;;18.75;;
29504;SDS011;16452;54.174;12.092;2023-03-03T06:34:13;26.85;;;18.45;;
29504;SDS011;16452;54.174;12.092;2023-03-03T06:36:39;31.85;;;19.40;;
29504;SDS011;16452;54.174;12.092;2023-03-03T06:39:05;31.55;;;19.80;;
29504;SDS011;16452;54.174;12.092;2023-03-03T06:41:31;27.73;;;19.10;;
29504;SDS011;16452;54.174;12.092;2023-03-03T06:43:57;31.15;;;20.42;;
29504;SDS011;16452;54.174;12.092;2023-03-03T06:46:24;31.08;;;20.35;;
29504;SDS011;16452;54.174;12.092;2023-03-03T06:48:50;29.75;;;19.63;;
29504;SDS011;16452;54.174;12.092;2023-03-03T06:51:33;31.63;;;20.23;;
29504;SDS011;16452;54.174;12.092;2023-03-03T06:54:08;29.75;;;20.13;;
29504;SDS011;16452;54.174;12.092;2023-03-03T06:56:43;30.73;;;19.88;;
29504;SDS011;16452;54.174;12.092;2023-03-03T06:59:11;29.00;;;19.48;;
29504;SDS011;16452;54.174;12.092;2023-03-03T07:01:44;32.53;;;19.98;;
29504;SDS011;16452;54.174;12.092;2023-03-03T07:04:31;34.03;;;21.13;;
29504;SDS011;16452;54.174;12.092;2023-03-03T07:09:54;32.65;;;20.85;;
29504;SDS011;16452;54.174;12.092;2023-03-03T07:12:21;30.25;;;20.15;;
29504;SDS011;16452;54.174;12.092;2023-03-03T07:15:15;29.35;;;19.60;;
29504;SDS011;16452;54.174;12.092;2023-03-03T07:17:54;27.92;;;19.25;;
29504;SDS011;16452;54.174;12.092;2023-03-03T07:20:28;29.38;;;20.20;;
29504;SDS011;16452;54.174;12.092;2023-03-03T07:23:15;29.20;;;20.45;;
29504;SDS011;16452;54.174;12.092;2023-03-03T07:25:48;29.00;;;19.75;;
29504;SDS011;16452;54.174;12.092;2023-03-03T07:28:20;30.60;;;20.10;;
29504;SDS011;16452;54.174;12.092;2023-03-03T07:30:51;28.27;;;19.67;;
29504;SDS011;16452;54.174;12.092;2023-03-03T07:36:01;31.40;;;19.90;;
29504;SDS011;16452;54.174;12.092;2023-03-03T07:41:13;33.07;;;20.90;;
29504;SDS011;16452;54.174;12.092;2023-03-03T07:43:48;28.50;;;20.08;;
29504;SDS011;16452;54.174;12.092;2023-03-03T07:49:01;31.73;;;20.05;;
29504;SDS011;16452;54.174;12.092;2023-03-03T07:51:41;31.88;;;20.13;;
29504;SDS011;16452;54.174;12.092;2023-03-03T07:54:20;30.98;;;21.00;;
29504;SDS011;16452;54.174;12.092;2023-03-03T08:01:18;35.10;;;21.25;;
29504;SDS011;16452;54.174;12.092;2023-03-03T08:05:36;28.70;;;20.00;;
29504;SDS011;16452;54.174;12.092;2023-03-03T08:10:57;33.25;;;21.00;;
29504;SDS011;16452;54.174;12.092;2023-03-03T08:18:34;24.05;;;18.27;;
29504;SDS011;16452;54.174;12.092;2023-03-03T08:21:18;26.40;;;18.75;;
29504;SDS011;16452;54.174;12.092;2023-03-03T08:23:50;23.98;;;16.95;;
29504;SDS011;16452;54.174;12.092;2023-03-03T08:26:21;25.08;;;17.17;;
29504;SDS011;16452;54.174;12.092;2023-03-03T08:28:48;25.00;;;17.98;;
29504;SDS011;16452;54.174;12.092;2023-03-03T08:31:14;22.00;;;16.65;;
29504;SDS011;16452;54.174;12.092;2023-03-03T08:33:41;22.73;;;16.58;;
29504;SDS011;16452;54.174;12.092;2023-03-03T08:36:08;21.73;;;16.77;;
29504;SDS011;16452;54.174;12.092;2023-03-03T08:38:34;21.98;;;16.33;;
29504;SDS011;16452;54.174;12.092;2023-03-03T08:41:01;22.95;;;16.25;;
29504;SDS011;16452;54.174;12.092;2023-03-03T08:43:28;20.20;;;14.68;;
29504;SDS011;16452;54.174;12.092;2023-03-03T08:45:56;21.75;;;15.48;;
29504;SDS011;16452;54.174;12.092;2023-03-03T08:48:25;20.67;;;15.77;;
29504;SDS011;16452;54.174;12.092;2023-03-03T08:50:52;20.95;;;14.65;;
29504;SDS011;16452;54.174;12.092;2023-03-03T08:53:19;21.55;;;13.93;;
29504;SDS011;16452;54.174;12.092;2023-03-03T08:55:46;20.88;;;14.43;;
29504;SDS011;16452;54.174;12.092;2023-03-03T08:58:13;20.10;;;14.15;;
29504;SDS011;16452;54.174;12.092;2023-03-03T09:00:40;18.17;;;13.73;;
29504;SDS011;16452;54.174;12.092;2023-03-03T09:03:06;16.92;;;11.60;;
29504;SDS011;16452;54.174;12.092;2023-03-03T09:05:33;17.95;;;11.60;;
29504;SDS011;16452;54.174;12.092;2023-03-03T09:08:01;18.55;;;11.43;;
29504;SDS011;16452;54.174;12.092;2023-03-03T09:10:27;17.20;;;11.18;;
29504;SDS011;16452;54.174;12.092;2023-03-03T09:12:56;18.00;;;10.10;;
29504;SDS011;16452;54.174;12.092;2023-03-03T09:15:27;15.27;;;10.27;;
29504;SDS011;16452;54.174;12.092;2023-03-03T09:20:49;13.55;;;8.45;;
29504;SDS011;16452;54.174;12.092;2023-03-03T09:28:58;15.02;;;8.52;;
29504;SDS011;16452;54.174;12.092;2023-03-03T09:31:26;12.85;;;7.28;;
29504;SDS011;16452;54.174;12.092;2023-03-03T09:34:21;13.27;;;7.10;;
29504;SDS011;16452;54.174;12.092;2023-03-03T09:36:53;10.48;;;6.95;;
29504;SDS011;16452;54.174;12.092;2023-03-03T09:39:23;11.38;;;7.13;;
29504;SDS011;16452;54.174;12.092;2023-03-03T09:48:16;14.45;;;8.93;;
29504;SDS011;16452;54.174;12.092;2023-03-03T09:50:50;12.93;;;8.75;;
29504;SDS011;16452;54.174;12.092;2023-03-03T09:53:33;11.77;;;8.20;;
29504;SDS011;16452;54.174;12.092;2023-03-03T09:59:20;12.65;;;8.00;;
29504;SDS011;16452;54.174;12.092;2023-03-03T10:34:34;10.52;;;5.70;;
29504;SDS011;16452;54.174;12.092;2023-03-03T10:43:10;13.80;;;6.97;;
29504;SDS011;16452;54.174;12.092;2023-03-03T10:54:44;13.85;;;8.40;;
29504;SDS011;16452;54.174;12.092;2023-03-03T11:06:04;12.98;;;8.40;;
29504;SDS011;16452;54.174;12.092;2023-03-03T11:13:50;13.43;;;9.13;;
29504;SDS011;16452;54.174;12.092;2023-03-03T11:28:24;11.43;;;7.47;;
29504;SDS011;16452;54.174;12.092;2023-03-03T11:37:23;12.48;;;8.23;;
29504;SDS011;16452;54.174;12.092;2023-03-03T11:40:01;14.27;;;8.63;;
29504;SDS011;16452;54.174;12.092;2023-03-03T11:42:52;19.85;;;8.98;;
29504;SDS011;16452;54.174;12.092;2023-03-03T11:45:59;17.88;;;10.82;;
29504;SDS011;16452;54.174;12.092;2023-03-03T11:48:42;21.25;;;10.60;;
29504;SDS011;16452;54.174;12.092;2023-03-03T11:52:00;23.35;;;11.18;;
29504;SDS011;16452;54.174;12.092;2023-03-03T11:54:30;18.80;;;13.05;;
29504;SDS011;16452;54.174;12.092;2023-03-03T11:57:37;18.27;;;12.18;;
29504;SDS011;16452;54.174;12.092;2023-03-03T12:00:16;19.17;;;12.05;;
29504;SDS011;16452;54.174;12.092;2023-03-03T12:02:57;19.35;;;11.73;;
29504;SDS011;16452;54.174;12.092;2023-03-03T12:14:27;21.67;;;13.20;;
29504;SDS011;16452;54.174;12.092;2023-03-03T12:20:02;18.00;;;11.60;;
29504;SDS011;16452;54.174;12.092;2023-03-03T12:43:02;10.70;;;7.05;;
29504;SDS011;16452;54.174;12.092;2023-03-03T12:45:50;10.48;;;6.68;;
29504;SDS011;16452;54.174;12.092;2023-03-03T12:51:12;13.88;;;6.38;;
29504;SDS011;16452;54.174;12.092;2023-03-03T12:53:57;9.48;;;6.22;;
29504;SDS011;16452;54.174;12.092;2023-03-03T12:56:47;11.43;;;6.97;;
29504;SDS011;16452;54.174;12.092;2023-03-03T13:14:17;10.65;;;5.13;;
29504;SDS011;16452;54.174;12.092;2023-03-03T13:19:51;13.13;;;7.35;;
29504;SDS011;16452;54.174;12.092;2023-03-03T13:27:44;7.03;;;4.05;;
29504;SDS011;16452;54.174;12.092;2023-03-03T13:30:21;7.50;;;4.05;;
29504;SDS011;16452;54.174;12.092;2023-03-03T13:33:13;5.93;;;3.92;;
29504;SDS011;16452;54.174;12.092;2023-03-03T13:35:53;7.25;;;3.67;;
29504;SDS011;16452;54.174;12.092;2023-03-03T13:38:42;6.85;;;3.65;;
29504;SDS011;16452;54.174;12.092;2023-03-03T13:44:24;9.77;;;3.80;;
29504;SDS011;16452;54.174;12.092;2023-03-03T13:50:03;10.20;;;3.75;;
29504;SDS011;16452;54.174;12.092;2023-03-03T13:52:58;9.10;;;3.80;;
29504;SDS011;16452;54.174;12.092;2023-03-03T13:55:51;5.80;;;3.42;;
29504;SDS011;16452;54.174;12.092;2023-03-03T14:10:40;8.65;;;3.35;;
29504;SDS011;16452;54.174;12.092;2023-03-03T14:19:37;15.85;;;4.00;;
29504;SDS011;16452;54.174;12.092;2023-03-03T14:22:15;9.73;;;3.50;;
29504;SDS011;16452;54.174;12.092;2023-03-03T14:25:18;5.88;;;3.17;;
29504;SDS011;16452;54.174;12.092;2023-03-03T14:30:41;9.32;;;4.05;;
29504;SDS011;16452;54.174;12.092;2023-03-03T14:43:37;10.73;;;4.70;;
29504;SDS011;16452;54.174;12.092;2023-03-03T14:49:02;10.50;;;4.68;;
29504;SDS011;16452;54.174;12.092;2023-03-03T14:51:53;10.82;;;4.40;;
29504;SDS011;16452;54.174;12.092;2023-03-03T14:54:42;8.73;;;3.65;;
29504;SDS011;16452;54.174;12.092;2023-03-03T14:57:37;14.20;;;4.35;;
29504;SDS011;16452;54.174;12.092;2023-03-03T15:05:31;8.43;;;4.13;;
29504;SDS011;16452;54.174;12.092;2023-03-03T15:10:40;9.32;;;4.07;;
29504;SDS011;16452;54.174;12.092;2023-03-03T15:13:23;12.18;;;3.75;;
29504;SDS011;16452;54.174;12.092;2023-03-03T15:25:22;10.48;;;4.07;;
29504;SDS011;16452;54.174;12.092;2023-03-03T15:28:11;11.65;;;4.63;;
29504;SDS011;16452;54.174;12.092;2023-03-03T15:47:24;7.80;;;4.50;;
29504;SDS011;16452;54.174;12.092;2023-03-03T15:50:30;12.45;;;5.40;;
29504;SDS011;16452;54.174;12.092;2023-03-03T15:56:28;9.95;;;5.63;;
29504;SDS011;16452;54.174;12.092;2023-03-03T16:02:12;14.70;;;6.28;;
29504;SDS011;16452;54.174;12.092;2023-03-03T16:04:56;14.15;;;6.20;;
29504;SDS011;16452;54.174;12.092;2023-03-03T16:07:49;15.10;;;7.38;;
29504;SDS011;16452;54.174;12.092;2023-03-03T16:28:09;11.52;;;7.97;;
29504;SDS011;16452;54.174;12.092;2023-03-03T16:49:07;13.65;;;8.43;;
29504;SDS011;16452;54.174;12.092;2023-03-03T16:51:55;17.45;;;7.97;;
29504;SDS011;16452;54.174;12.092;2023-03-03T17:00:49;18.23;;;7.82;;
29504;SDS011;16452;54.174;12.092;2023-03-03T17:03:33;12.65;;;7.40;;
29504;SDS011;16452;54.174;12.092;2023-03-03T17:06:35;13.90;;;7.07;;
29504;SDS011;16452;54.174;12.092;2023-03-03T17:35:37;14.77;;;4.72;;
29504;SDS011;16452;54.174;12.092;2023-03-03T17:39:13;15.40;;;4.68;;
29504;SDS011;16452;54.174;12.092;2023-03-03T17:50:35;22.13;;;5.30;;
29504;SDS011;16452;54.174;12.092;2023-03-03T17:56:17;16.77;;;5.05;;
29504;SDS011;16452;54.174;12.092;2023-03-03T17:59:21;15.57;;;4.88;;
29504;SDS011;16452;54.174;12.092;2023-03-03T18:02:15;16.25;;;4.68;;
29504;SDS011;16452;54.174;12.092;2023-03-03T18:07:49;17.88;;;5.32;;
29504;SDS011;16452;54.174;12.092;2023-03-03T18:22:50;19.63;;;4.28;;
29504;SDS011;16452;54.174;12.092;2023-03-03T18:25:18;24.23;;;4.65;;
29504;SDS011;16452;54.174;12.092;2023-03-03T18:28:13;25.13;;;4.93;;
29504;SDS011;16452;54.174;12.092;2023-03-03T18:36:11;26.48;;;5.43;;
29504;SDS011;16452;54.174;12.092;2023-03-03T18:38:52;28.55;;;4.97;;
29504;SDS011;16452;54.174;12.092;2023-03-03T18:41:27;22.10;;;5.30;;
29504;SDS011;16452;54.174;12.092;2023-03-03T18:46:52;28.92;;;4.75;;
29504;SDS011;16452;54.174;12.092;2023-03-03T18:49:46;28.25;;;4.85;;
29504;SDS011;16452;54.174;12.092;2023-03-03T18:52:29;27.80;;;5.10;;
29504;SDS011;16452;54.174;12.092;2023-03-03T18:55:19;27.75;;;4.72;;
29504;SDS011;16452;54.174;12.092;2023-03-03T18:57:59;23.30;;;4.93;;
29504;SDS011;16452;54.174;12.092;2023-03-03T19:01:00;23.95;;;4.93;;
29504;SDS011;16452;54.174;12.092;2023-03-03T19:04:15;24.73;;;4.68;;
29504;SDS011;16452;54.174;12.092;2023-03-03T19:09:42;41.38;;;5.20;;
29504;SDS011;16452;54.174;12.092;2023-03-03T19:26:54;31.10;;;5.75;;
29504;SDS011;16452;54.174;12.092;2023-03-03T19:32:27;26.85;;;5.57;;
29504;SDS011;16452;54.174;12.092;2023-03-03T19:38:32;28.38;;;5.72;;
29504;SDS011;16452;54.174;12.092;2023-03-03T19:44:28;31.05;;;5.90;;
29504;SDS011;16452;54.174;12.092;2023-03-03T19:50:24;28.95;;;5.82;;
29504;SDS011;16452;54.174;12.092;2023-03-03T19:56:22;29.45;;;5.82;;
29504;SDS011;16452;54.174;12.092;2023-03-03T19:59:09;23.35;;;5.38;;
29504;SDS011;16452;54.174;12.092;2023-03-03T20:01:45;28.40;;;5.53;;
29504;SDS011;16452;54.174;12.092;2023-03-03T20:11:06;28.92;;;4.78;;
29504;SDS011;16452;54.174;12.092;2023-03-03T20:13:53;37.42;;;5.47;;
29504;SDS011;16452;54.174;12.092;2023-03-03T20:16:38;26.40;;;4.45;;
29504;SDS011;16452;54.174;12.092;2023-03-03T20:19:20;32.78;;;5.93;;
29504;SDS011;16452;54.174;12.092;2023-03-03T20:22:25;35.90;;;5.55;;
29504;SDS011;16452;54.174;12.092;2023-03-03T20:25:14;27.17;;;6.85;;
29504;SDS011;16452;54.174;12.092;2023-03-03T20:30:52;29.63;;;5.43;;
29504;SDS011;16452;54.174;12.092;2023-03-03T20:33:39;32.65;;;5.60;;
29504;SDS011;16452;54.174;12.092;2023-03-03T20:39:14;28.85;;;5.10;;
29504;SDS011;16452;54.174;12.092;2023-03-03T20:42:22;33.28;;;5.60;;
29504;SDS011;16452;54.174;12.092;2023-03-03T20:45:26;29.77;;;5.85;;
29504;SDS011;16452;54.174;12.092;2023-03-03T20:48:08;33.10;;;5.50;;
29504;SDS011;16452;54.174;12.092;2023-03-03T20:51:44;33.45;;;6.10;;
29504;SDS011;16452;54.174;12.092;2023-03-03T20:57:19;35.90;;;6.00;;
29504;SDS011;16452;54.174;12.092;2023-03-03T21:00:10;29.17;;;5.47;;
29504;SDS011;16452;54.174;12.092;2023-03-03T21:02:52;30.77;;;5.47;;
29504;SDS011;16452;54.174;12.092;2023-03-03T21:06:01;29.90;;;5.90;;
29504;SDS011;16452;54.174;12.092;2023-03-03T21:08:49;33.90;;;6.18;;
29504;SDS011;16452;54.174;12.092;2023-03-03T21:13:55;31.30;;;6.10;;
29504;SDS011;16452;54.174;12.092;2023-03-03T21:18:57;36.92;;;6.35;;
29504;SDS011;16452;54.174;12.092;2023-03-03T21:21:29;29.63;;;6.13;;
29504;SDS011;16452;54.174;12.092;2023-03-03T21:23:59;35.78;;;6.28;;
29504;SDS011;16452;54.174;12.092;2023-03-03T21:29:16;30.42;;;5.85;;
29504;SDS011;16452;54.174;12.092;2023-03-03T21:31:50;39.47;;;6.35;;
29504;SDS011;16452;54.174;12.092;2023-03-03T21:34:33;38.35;;;5.72;;
29504;SDS011;16452;54.174;12.092;2023-03-03T21:37:12;26.38;;;5.13;;
29504;SDS011;16452;54.174;12.092;2023-03-03T21:42:54;28.52;;;6.10;;
29504;SDS011;16452;54.174;12.092;2023-03-03T21:45:22;30.33;;;5.35;;
29504;SDS011;16452;54.174;12.092;2023-03-03T21:47:50;26.27;;;6.30;;
29504;SDS011;16452;54.174;12.092;2023-03-03T21:50:18;28.88;;;5.90;;
29504;SDS011;16452;54.174;12.092;2023-03-03T21:52:45;29.33;;;5.43;;
29504;SDS011;16452;54.174;12.092;2023-03-03T21:55:13;29.17;;;5.70;;
29504;SDS011;16452;54.174;12.092;2023-03-03T21:57:39;33.22;;;5.85;;
29504;SDS011;16452;54.174;12.092;2023-03-03T22:00:05;27.58;;;5.30;;
29504;SDS011;16452;54.174;12.092;2023-03-03T22:02:33;27.63;;;5.85;;
29504;SDS011;16452;54.174;12.092;2023-03-03T22:04:59;33.45;;;5.60;;
29504;SDS011;16452;54.174;12.092;2023-03-03T22:07:27;38.95;;;5.13;;
29504;SDS011;16452;54.174;12.092;2023-03-03T22:09:53;27.17;;;4.95;;
29504;SDS011;16452;54.174;12.092;2023-03-03T22:12:18;34.65;;;5.55;;
29504;SDS011;16452;54.174;12.092;2023-03-03T22:14:44;39.38;;;5.97;;
29504;SDS011;16452;54.174;12.092;2023-03-03T22:17:10;26.45;;;5.65;;